sensor_id;sensor_type;location;lat;lon;timestamp;pressure;altitude;pressure_sealevel;temperature;humidity
84443;BME280;74681;0.000;0.000;2024-03-23T00:52:29;98592.63;;;23.49;58.21
84443;BME280;74681;0.000;0.000;2024-03-23T00:54:54;98595.69;;;23.48;57.99
84443;BME280;74681;0.000;0.000;2024-03-23T00:57:20;98599.56;;;23.47;58.04
84443;BME280;74681;0.000;0.000;2024-03-23T00:59:45;98594.06;;;23.47;58.28
84443;BME280;74681;0.000;0.000;2024-03-23T01:02:11;98586.97;;;23.46;58.18
84443;BME280;74681;0.000;0.000;2024-03-23T01:04:36;98593.59;;;23.45;57.91
84443;BME280;74681;0.000;0.000;2024-03-23T01:07:01;98581.00;;;23.44;58.03
84443;BME280;74681;0.000;0.000;2024-03-23T01:09:27;98584.84;;;23.43;58.13
84443;BME280;74681;0.000;0.000;2024-03-23T01:11:52;98576.63;;;23.43;57.75
84443;BME280;74681;0.000;0.000;2024-03-23T01:14:17;98575.03;;;23.42;57.77
84443;BME280;74681;0.000;0.000;2024-03-23T01:16:42;98573.38;;;23.41;58.04
84443;BME280;74681;0.000;0.000;2024-03-23T01:19:08;98570.66;;;23.41;58.05
84443;BME280;74681;0.000;0.000;2024-03-23T01:21:33;98564.34;;;23.40;57.77
84443;BME280;74681;0.000;0.000;2024-03-23T01:23:58;98571.75;;;23.40;57.99
84443;BME280;74681;0.000;0.000;2024-03-23T01:26:24;98569.34;;;23.38;57.87
84443;BME280;74681;0.000;0.000;2024-03-23T01:28:49;98568.53;;;23.38;58.11
84443;BME280;74681;0.000;0.000;2024-03-23T01:31:14;98559.78;;;23.36;57.70
84443;BME280;74681;0.000;0.000;2024-03-23T01:33:42;98554.31;;;23.36;57.86
84443;BME280;74681;0.000;0.000;2024-03-23T01:36:07;98550.75;;;23.35;58.06
84443;BME280;74681;0.000;0.000;2024-03-23T01:38:33;98547.19;;;23.35;57.92
84443;BME280;74681;0.000;0.000;2024-03-23T01:40:59;98545.59;;;23.34;57.80
84443;BME280;74681;0.000;0.000;2024-03-23T01:43:24;98544.78;;;23.33;57.92
84443;BME280;74681;0.000;0.000;2024-03-23T01:45:50;98540.41;;;23.32;57.56
84443;BME280;74681;0.000;0.000;2024-03-23T01:48:15;98540.41;;;23.32;57.79
84443;BME280;74681;0.000;0.000;2024-03-23T01:50:41;98535.25;;;23.31;57.53
84443;BME280;74681;0.000;0.000;2024-03-23T01:53:06;98533.63;;;23.30;57.79
84443;BME280;74681;0.000;0.000;2024-03-23T01:55:32;98536.38;;;23.30;57.83
84443;BME280;74681;0.000;0.000;2024-03-23T01:57:58;98538.28;;;23.29;57.75
84443;BME280;74681;0.000;0.000;2024-03-23T02:00:23;98537.47;;;23.29;57.67
84443;BME280;74681;0.000;0.000;2024-03-23T02:02:48;98530.41;;;23.28;57.67
84443;BME280;74681;0.000;0.000;2024-03-23T02:05:14;98532.31;;;23.27;57.46
84443;BME280;74681;0.000;0.000;2024-03-23T02:07:40;98531.50;;;23.27;57.41
84443;BME280;74681;0.000;0.000;2024-03-23T02:10:06;98527.94;;;23.26;57.37
84443;BME280;74681;0.000;0.000;2024-03-23T02:12:31;98523.63;;;23.25;57.40
84443;BME280;74681;0.000;0.000;2024-03-23T02:14:56;98519.25;;;23.24;57.60
84443;BME280;74681;0.000;0.000;2024-03-23T02:17:22;98524.72;;;23.24;57.55
84443;BME280;74681;0.000;0.000;2024-03-23T02:19:47;98528.56;;;23.23;57.50
84443;BME280;74681;0.000;0.000;2024-03-23T02:22:12;98525.03;;;23.23;57.44
84443;BME280;74681;0.000;0.000;2024-03-23T02:24:38;98521.50;;;23.22;57.72
84443;BME280;74681;0.000;0.000;2024-03-23T02:27:03;98519.03;;;23.20;57.52
84443;BME280;74681;0.000;0.000;2024-03-23T02:29:28;98522.94;;;23.19;57.34
84443;BME280;74681;0.000;0.000;2024-03-23T02:31:54;98520.19;;;23.19;57.50
84443;BME280;74681;0.000;0.000;2024-03-23T02:34:19;98503.22;;;23.17;57.51
84443;BME280;74681;0.000;0.000;2024-03-23T02:36:44;98512.25;;;23.18;57.61
84443;BME280;74681;0.000;0.000;2024-03-23T02:39:09;98502.44;;;23.17;57.46
84443;BME280;74681;0.000;0.000;2024-03-23T02:41:35;98503.56;;;23.16;57.14
84443;BME280;74681;0.000;0.000;2024-03-23T02:44:00;98498.38;;;23.14;57.39
84443;BME280;74681;0.000;0.000;2024-03-23T02:46:26;98490.47;;;23.13;57.34
84443;BME280;74681;0.000;0.000;2024-03-23T02:48:51;98493.22;;;23.13;57.42
84443;BME280;74681;0.000;0.000;2024-03-23T02:51:16;98488.06;;;23.11;57.38
84443;BME280;74681;0.000;0.000;2024-03-23T02:53:42;98489.66;;;23.12;57.46
84443;BME280;74681;0.000;0.000;2024-03-23T02:56:07;98478.22;;;23.10;57.33
84443;BME280;74681;0.000;0.000;2024-03-23T02:58:33;98480.63;;;23.12;57.15
84443;BME280;74681;0.000;0.000;2024-03-23T03:00:58;98482.88;;;23.10;57.03
84443;BME280;74681;0.000;0.000;2024-03-23T03:03:24;98476.59;;;23.09;57.17
84443;BME280;74681;0.000;0.000;2024-03-23T03:05:59;98475.78;;;23.09;57.34
84443;BME280;74681;0.000;0.000;2024-03-23T03:08:24;98477.72;;;23.08;57.24
84443;BME280;74681;0.000;0.000;2024-03-23T03:10:49;98475.28;;;23.07;57.12
84443;BME280;74681;0.000;0.000;2024-03-23T03:13:14;98461.91;;;23.05;57.08
84443;BME280;74681;0.000;0.000;2024-03-23T03:15:40;98470.94;;;23.06;57.15
84443;BME280;74681;0.000;0.000;2024-03-23T03:18:06;98474.47;;;23.06;57.18
84443;BME280;74681;0.000;0.000;2024-03-23T03:20:31;98462.22;;;23.04;56.92
84443;BME280;74681;0.000;0.000;2024-03-23T03:22:56;98464.13;;;23.03;57.21
84443;BME280;74681;0.000;0.000;2024-03-23T03:25:22;98465.28;;;23.02;57.13
84443;BME280;74681;0.000;0.000;2024-03-23T03:27:47;98458.16;;;23.01;57.15
84443;BME280;74681;0.000;0.000;2024-03-23T03:30:13;98460.09;;;23.01;57.06
84443;BME280;74681;0.000;0.000;2024-03-23T03:32:38;98462.84;;;23.01;57.15
84443;BME280;74681;0.000;0.000;2024-03-23T03:35:03;98455.75;;;23.00;57.07
84443;BME280;74681;0.000;0.000;2024-03-23T03:37:29;98456.88;;;22.99;57.13
84443;BME280;74681;0.000;0.000;2024-03-23T03:39:55;98449.75;;;22.98;57.16
84443;BME280;74681;0.000;0.000;2024-03-23T03:42:20;98459.59;;;22.99;56.91
84443;BME280;74681;0.000;0.000;2024-03-23T03:44:45;98465.41;;;22.97;57.17
84443;BME280;74681;0.000;0.000;2024-03-23T03:47:11;98459.94;;;22.97;57.07
84443;BME280;74681;0.000;0.000;2024-03-23T03:49:36;98462.66;;;22.97;56.92
84443;BME280;74681;0.000;0.000;2024-03-23T03:52:02;98452.81;;;22.96;57.15
84443;BME280;74681;0.000;0.000;2024-03-23T03:54:27;98443.78;;;22.96;57.22
84443;BME280;74681;0.000;0.000;2024-03-23T03:56:52;98448.47;;;22.95;57.17
84443;BME280;74681;0.000;0.000;2024-03-23T03:59:18;98442.50;;;22.93;57.10
84443;BME280;74681;0.000;0.000;2024-03-23T04:01:43;98446.03;;;22.94;56.86
84443;BME280;74681;0.000;0.000;2024-03-23T04:04:09;98443.59;;;22.92;57.06
84443;BME280;74681;0.000;0.000;2024-03-23T04:06:34;98441.69;;;22.93;56.87
84443;BME280;74681;0.000;0.000;2024-03-23T04:08:59;98433.78;;;22.91;56.95
84443;BME280;74681;0.000;0.000;2024-03-23T04:11:25;98433.78;;;22.91;56.91
84443;BME280;74681;0.000;0.000;2024-03-23T04:13:50;98434.91;;;22.90;56.98
84443;BME280;74681;0.000;0.000;2024-03-23T04:18:59;98438.75;;;22.89;57.00
84443;BME280;74681;0.000;0.000;2024-03-23T04:21:25;98442.63;;;22.88;56.80
84443;BME280;74681;0.000;0.000;2024-03-23T04:23:50;98433.59;;;22.88;57.02
84443;BME280;74681;0.000;0.000;2024-03-23T04:26:15;98430.03;;;22.87;57.00
84443;BME280;74681;0.000;0.000;2024-03-23T04:28:42;98435.50;;;22.87;56.99
84443;BME280;74681;0.000;0.000;2024-03-23T04:31:08;98432.28;;;22.85;56.87
84443;BME280;74681;0.000;0.000;2024-03-23T04:33:33;98435.84;;;22.86;56.73
84443;BME280;74681;0.000;0.000;2024-03-23T04:35:59;98429.56;;;22.85;56.94
84443;BME280;74681;0.000;0.000;2024-03-23T04:38:24;98433.41;;;22.84;56.67
84443;BME280;74681;0.000;0.000;2024-03-23T04:40:59;98427.91;;;22.84;56.81
84443;BME280;74681;0.000;0.000;2024-03-23T04:43:27;98429.06;;;22.83;56.96
84443;BME280;74681;0.000;0.000;2024-03-23T04:45:52;98430.16;;;22.82;56.71
84443;BME280;74681;0.000;0.000;2024-03-23T04:48:21;98421.13;;;22.82;57.02
84443;BME280;74681;0.000;0.000;2024-03-23T04:50:47;98421.97;;;22.82;56.74
84443;BME280;74681;0.000;0.000;2024-03-23T04:53:12;98420.66;;;22.80;56.63
84443;BME280;74681;0.000;0.000;2024-03-23T04:55:38;98423.38;;;22.80;56.76
84443;BME280;74681;0.000;0.000;2024-03-23T04:58:03;98426.13;;;22.80;56.76
84443;BME280;74681;0.000;0.000;2024-03-23T05:00:29;98417.09;;;22.79;56.93
84443;BME280;74681;0.000;0.000;2024-03-23T05:02:54;98410.81;;;22.79;56.72
84443;BME280;74681;0.000;0.000;2024-03-23T05:05:19;98411.94;;;22.78;56.82
84443;BME280;74681;0.000;0.000;2024-03-23T05:07:45;98410.00;;;22.78;56.71
84443;BME280;74681;0.000;0.000;2024-03-23T05:10:10;98409.50;;;22.76;56.85
84443;BME280;74681;0.000;0.000;2024-03-23T05:12:36;98417.72;;;22.76;56.96
84443;BME280;74681;0.000;0.000;2024-03-23T05:15:02;98405.94;;;22.76;56.85
84443;BME280;74681;0.000;0.000;2024-03-23T05:17:28;98423.50;;;22.75;56.91
84443;BME280;74681;0.000;0.000;2024-03-23T05:19:53;98420.78;;;22.75;56.68
84443;BME280;74681;0.000;0.000;2024-03-23T05:22:19;98418.03;;;22.75;56.90
84443;BME280;74681;0.000;0.000;2024-03-23T05:24:45;98417.22;;;22.74;56.80
84443;BME280;74681;0.000;0.000;2024-03-23T05:27:10;98415.59;;;22.73;56.58
84443;BME280;74681;0.000;0.000;2024-03-23T05:32:01;98410.44;;;22.72;56.75
84443;BME280;74681;0.000;0.000;2024-03-23T05:34:26;98409.63;;;22.71;56.44
84443;BME280;74681;0.000;0.000;2024-03-23T05:36:51;98412.38;;;22.71;56.81
84443;BME280;74681;0.000;0.000;2024-03-23T05:39:17;98408.00;;;22.70;56.82
84443;BME280;74681;0.000;0.000;2024-03-23T05:41:42;98415.09;;;22.71;56.71
84443;BME280;74681;0.000;0.000;2024-03-23T05:44:07;98403.66;;;22.69;56.78
84443;BME280;74681;0.000;0.000;2024-03-23T05:46:33;98401.75;;;22.70;56.75
84443;BME280;74681;0.000;0.000;2024-03-23T05:49:00;98402.84;;;22.69;56.83
84443;BME280;74681;0.000;0.000;2024-03-23T05:51:26;98406.69;;;22.68;56.67
84443;BME280;74681;0.000;0.000;2024-03-23T05:53:51;98412.16;;;22.68;56.64
84443;BME280;74681;0.000;0.000;2024-03-23T05:56:19;98405.09;;;22.67;56.87
84443;BME280;74681;0.000;0.000;2024-03-23T05:58:44;98400.41;;;22.67;56.63
84443;BME280;74681;0.000;0.000;2024-03-23T06:01:11;98401.56;;;22.66;56.48
84443;BME280;74681;0.000;0.000;2024-03-23T06:03:37;98402.66;;;22.65;56.51
84443;BME280;74681;0.000;0.000;2024-03-23T06:06:03;98401.84;;;22.65;56.66
84443;BME280;74681;0.000;0.000;2024-03-23T06:08:29;98403.75;;;22.64;56.79
84443;BME280;74681;0.000;0.000;2024-03-23T06:10:55;98406.50;;;22.64;56.77
84443;BME280;74681;0.000;0.000;2024-03-23T06:13:20;98404.56;;;22.65;56.64
84443;BME280;74681;0.000;0.000;2024-03-23T06:15:50;98394.78;;;22.64;56.69
84443;BME280;74681;0.000;0.000;2024-03-23T06:18:15;98396.66;;;22.63;56.71
84443;BME280;74681;0.000;0.000;2024-03-23T06:20:40;98386.81;;;22.62;56.59
84443;BME280;74681;0.000;0.000;2024-03-23T06:23:06;98397.78;;;22.62;56.78
84443;BME280;74681;0.000;0.000;2024-03-23T06:25:31;98389.06;;;22.60;56.64
84443;BME280;74681;0.000;0.000;2024-03-23T06:27:57;98381.69;;;22.60;56.62
84443;BME280;74681;0.000;0.000;2024-03-23T06:30:24;98378.94;;;22.60;56.54
84443;BME280;74681;0.000;0.000;2024-03-23T06:32:52;98378.41;;;22.58;56.65
84443;BME280;74681;0.000;0.000;2024-03-23T06:35:18;98378.13;;;22.60;56.61
84443;BME280;74681;0.000;0.000;2024-03-23T06:37:43;98381.97;;;22.59;56.93
84443;BME280;74681;0.000;0.000;2024-03-23T06:40:08;98372.16;;;22.58;56.86
84443;BME280;74681;0.000;0.000;2024-03-23T06:42:35;98374.91;;;22.58;56.78
84443;BME280;74681;0.000;0.000;2024-03-23T06:45:01;98376.00;;;22.57;56.70
84443;BME280;74681;0.000;0.000;2024-03-23T06:47:27;98367.78;;;22.57;56.67
84443;BME280;74681;0.000;0.000;2024-03-23T06:49:52;98373.28;;;22.57;56.95
84443;BME280;74681;0.000;0.000;2024-03-23T06:52:17;98370.84;;;22.55;56.87
84443;BME280;74681;0.000;0.000;2024-03-23T06:54:42;98360.69;;;22.56;56.98
84443;BME280;74681;0.000;0.000;2024-03-23T06:57:10;98362.66;;;22.55;56.78
84443;BME280;74681;0.000;0.000;2024-03-23T06:59:37;98359.91;;;22.55;57.07
84443;BME280;74681;0.000;0.000;2024-03-23T07:02:04;98348.97;;;22.55;57.12
84443;BME280;74681;0.000;0.000;2024-03-23T07:04:29;98346.22;;;22.55;57.14
84443;BME280;74681;0.000;0.000;2024-03-23T07:06:54;98346.22;;;22.55;57.26
84443;BME280;74681;0.000;0.000;2024-03-23T07:09:20;98336.06;;;22.56;57.28
84443;BME280;74681;0.000;0.000;2024-03-23T07:11:50;98337.22;;;22.55;57.54
84443;BME280;74681;0.000;0.000;2024-03-23T07:14:15;98327.56;;;22.57;57.61
84443;BME280;74681;0.000;0.000;2024-03-23T07:16:41;98334.63;;;22.58;57.93
84443;BME280;74681;0.000;0.000;2024-03-23T07:19:06;98341.75;;;22.59;58.24
84443;BME280;74681;0.000;0.000;2024-03-23T07:21:31;98340.94;;;22.59;58.02
84443;BME280;74681;0.000;0.000;2024-03-23T07:23:57;98342.84;;;22.58;57.59
84443;BME280;74681;0.000;0.000;2024-03-23T07:26:22;98335.44;;;22.59;57.65
84443;BME280;74681;0.000;0.000;2024-03-23T07:28:47;98339.31;;;22.58;57.08
84443;BME280;74681;0.000;0.000;2024-03-23T07:31:14;98332.72;;;22.59;57.95
84443;BME280;74681;0.000;0.000;2024-03-23T07:33:43;98335.44;;;22.59;58.34
84443;BME280;74681;0.000;0.000;2024-03-23T07:36:09;98321.78;;;22.59;58.44
84443;BME280;74681;0.000;0.000;2024-03-23T07:38:34;98321.78;;;22.59;58.40
84443;BME280;74681;0.000;0.000;2024-03-23T07:41:06;98317.13;;;22.59;58.54
84443;BME280;74681;0.000;0.000;2024-03-23T07:43:32;98319.84;;;22.59;58.51
84443;BME280;74681;0.000;0.000;2024-03-23T07:46:13;98318.75;;;22.60;58.37
84443;BME280;74681;0.000;0.000;2024-03-23T07:48:39;98319.03;;;22.59;57.81
84443;BME280;74681;0.000;0.000;2024-03-23T07:51:06;98312.75;;;22.58;57.87
84443;BME280;74681;0.000;0.000;2024-03-23T07:53:32;98310.53;;;22.60;57.92
84443;BME280;74681;0.000;0.000;2024-03-23T07:56:01;98305.88;;;22.61;58.07
84443;BME280;74681;0.000;0.000;2024-03-23T07:58:27;98305.88;;;22.61;57.53
84443;BME280;74681;0.000;0.000;2024-03-23T08:00:55;98302.31;;;22.60;57.42
84443;BME280;74681;0.000;0.000;2024-03-23T08:03:21;98293.28;;;22.60;56.77
84443;BME280;74681;0.000;0.000;2024-03-23T08:05:46;98288.63;;;22.60;55.81
84443;BME280;74681;0.000;0.000;2024-03-23T08:08:12;98290.56;;;22.60;55.38
84443;BME280;74681;0.000;0.000;2024-03-23T08:10:46;98278.31;;;22.57;55.13
84443;BME280;74681;0.000;0.000;2024-03-23T08:13:12;98279.91;;;22.58;55.20
84443;BME280;74681;0.000;0.000;2024-03-23T08:15:37;98278.00;;;22.59;55.06
84443;BME280;74681;0.000;0.000;2024-03-23T08:18:03;98268.97;;;22.58;54.74
84443;BME280;74681;0.000;0.000;2024-03-23T08:20:28;98266.56;;;22.57;54.00
84443;BME280;74681;0.000;0.000;2024-03-23T08:22:53;98267.66;;;22.56;53.42
84443;BME280;74681;0.000;0.000;2024-03-23T08:25:19;98263.00;;;22.56;52.91
84443;BME280;74681;0.000;0.000;2024-03-23T08:27:44;98264.16;;;22.55;53.71
84443;BME280;74681;0.000;0.000;2024-03-23T08:30:10;98265.75;;;22.56;53.95
84443;BME280;74681;0.000;0.000;2024-03-23T08:32:36;98257.88;;;22.55;53.88
84443;BME280;74681;0.000;0.000;2024-03-23T08:35:01;98253.19;;;22.55;53.78
84443;BME280;74681;0.000;0.000;2024-03-23T08:37:27;98257.88;;;22.55;54.04
84443;BME280;74681;0.000;0.000;2024-03-23T08:39:52;98256.22;;;22.54;53.75
84443;BME280;74681;0.000;0.000;2024-03-23T08:42:18;98257.06;;;22.54;53.93
84443;BME280;74681;0.000;0.000;2024-03-23T08:44:43;98257.06;;;22.54;54.05
84443;BME280;74681;0.000;0.000;2024-03-23T08:47:11;98257.34;;;22.53;53.91
84443;BME280;74681;0.000;0.000;2024-03-23T08:49:37;98262.81;;;22.53;54.05
84443;BME280;74681;0.000;0.000;2024-03-23T08:52:02;98253.81;;;22.52;53.97
84443;BME280;74681;0.000;0.000;2024-03-23T08:54:27;98253.81;;;22.52;54.14
84443;BME280;74681;0.000;0.000;2024-03-23T08:56:54;98243.19;;;22.51;53.85
84443;BME280;74681;0.000;0.000;2024-03-23T08:59:19;98235.78;;;22.51;54.04
84443;BME280;74681;0.000;0.000;2024-03-23T09:01:45;98236.91;;;22.50;54.11
84443;BME280;74681;0.000;0.000;2024-03-23T09:04:10;98227.09;;;22.49;53.91
84443;BME280;74681;0.000;0.000;2024-03-23T09:06:36;98227.91;;;22.50;54.05
84443;BME280;74681;0.000;0.000;2024-03-23T09:09:01;98218.06;;;22.49;54.02
84443;BME280;74681;0.000;0.000;2024-03-23T09:11:27;98221.91;;;22.48;53.96
84443;BME280;74681;0.000;0.000;2024-03-23T09:13:52;98216.44;;;22.48;54.03
84443;BME280;74681;0.000;0.000;2024-03-23T09:16:17;98212.91;;;22.47;53.91
84443;BME280;74681;0.000;0.000;2024-03-23T09:18:43;98214.84;;;22.47;53.89
84443;BME280;74681;0.000;0.000;2024-03-23T09:21:11;98214.03;;;22.46;53.68
84443;BME280;74681;0.000;0.000;2024-03-23T09:23:43;98216.78;;;22.46;53.89
84443;BME280;74681;0.000;0.000;2024-03-23T09:26:08;98213.22;;;22.46;53.79
84443;BME280;74681;0.000;0.000;2024-03-23T09:28:34;98208.84;;;22.45;54.06
84443;BME280;74681;0.000;0.000;2024-03-23T09:31:06;98203.38;;;22.45;53.78
84443;BME280;74681;0.000;0.000;2024-03-23T09:33:41;98191.66;;;22.44;53.66
84443;BME280;74681;0.000;0.000;2024-03-23T09:36:06;98203.72;;;22.43;53.72
84443;BME280;74681;0.000;0.000;2024-03-23T09:38:32;98204.53;;;22.44;53.66
84443;BME280;74681;0.000;0.000;2024-03-23T09:40:57;98194.69;;;22.43;53.45
84443;BME280;74681;0.000;0.000;2024-03-23T09:43:23;98191.97;;;22.43;53.47
84443;BME280;74681;0.000;0.000;2024-03-23T09:45:48;98186.19;;;22.44;53.49
84443;BME280;74681;0.000;0.000;2024-03-23T09:48:14;98176.66;;;22.42;53.51
84443;BME280;74681;0.000;0.000;2024-03-23T09:50:43;98176.66;;;22.42;53.48
84443;BME280;74681;0.000;0.000;2024-03-23T09:53:11;98178.63;;;22.41;53.58
84443;BME280;74681;0.000;0.000;2024-03-23T09:55:37;98162.97;;;22.42;53.53
84443;BME280;74681;0.000;0.000;2024-03-23T09:58:03;98156.72;;;22.41;53.51
84443;BME280;74681;0.000;0.000;2024-03-23T10:00:30;98153.19;;;22.41;53.55
84443;BME280;74681;0.000;0.000;2024-03-23T10:02:55;98157.03;;;22.40;53.57
84443;BME280;74681;0.000;0.000;2024-03-23T10:05:23;98139.81;;;22.39;53.58
84443;BME280;74681;0.000;0.000;2024-03-23T10:07:51;98145.28;;;22.39;53.57
84443;BME280;74681;0.000;0.000;2024-03-23T10:10:17;98141.75;;;22.39;53.51
84443;BME280;74681;0.000;0.000;2024-03-23T10:12:46;98144.50;;;22.39;53.36
84443;BME280;74681;0.000;0.000;2024-03-23T10:15:17;98137.41;;;22.38;53.49
84443;BME280;74681;0.000;0.000;2024-03-23T10:17:43;98137.41;;;22.38;53.49
84443;BME280;74681;0.000;0.000;2024-03-23T10:20:10;98137.06;;;22.39;53.33
84443;BME280;74681;0.000;0.000;2024-03-23T10:22:37;98132.75;;;22.38;53.24
84443;BME280;74681;0.000;0.000;2024-03-23T10:25:07;98133.56;;;22.39;53.53
84443;BME280;74681;0.000;0.000;2024-03-23T10:27:33;98123.72;;;22.38;53.50
84443;BME280;74681;0.000;0.000;2024-03-23T10:29:59;98120.97;;;22.38;53.74
84443;BME280;74681;0.000;0.000;2024-03-23T10:32:32;98119.06;;;22.38;53.34
84443;BME280;74681;0.000;0.000;2024-03-23T10:35:02;98119.06;;;22.38;53.53
84443;BME280;74681;0.000;0.000;2024-03-23T10:37:38;98112.78;;;22.38;53.28
84443;BME280;74681;0.000;0.000;2024-03-23T10:40:05;98104.56;;;22.38;53.21
84443;BME280;74681;0.000;0.000;2024-03-23T10:42:30;98094.44;;;22.38;53.13
84443;BME280;74681;0.000;0.000;2024-03-23T10:44:57;98085.44;;;22.38;53.44
84443;BME280;74681;0.000;0.000;2024-03-23T10:47:23;98088.97;;;22.38;53.40
84443;BME280;74681;0.000;0.000;2024-03-23T10:49:48;98086.53;;;22.37;53.51
84443;BME280;74681;0.000;0.000;2024-03-23T10:52:14;98086.25;;;22.38;53.56
84443;BME280;74681;0.000;0.000;2024-03-23T10:54:39;98072.88;;;22.37;53.29
84443;BME280;74681;0.000;0.000;2024-03-23T10:59:32;98066.59;;;22.36;53.45
84443;BME280;74681;0.000;0.000;2024-03-23T11:01:59;98055.63;;;22.36;53.56
84443;BME280;74681;0.000;0.000;2024-03-23T11:04:31;98060.81;;;22.38;53.76
84443;BME280;74681;0.000;0.000;2024-03-23T11:06:56;98052.91;;;22.36;53.72
84443;BME280;74681;0.000;0.000;2024-03-23T11:09:37;98046.31;;;22.37;54.02
84443;BME280;74681;0.000;0.000;2024-03-23T11:14:52;98048.25;;;22.37;54.00
84443;BME280;74681;0.000;0.000;2024-03-23T11:17:18;98041.97;;;22.36;54.09
84443;BME280;74681;0.000;0.000;2024-03-23T11:19:44;98036.19;;;22.38;53.96
84443;BME280;74681;0.000;0.000;2024-03-23T11:22:09;98028.28;;;22.36;54.00
84443;BME280;74681;0.000;0.000;2024-03-23T11:24:34;98023.63;;;22.37;53.98
84443;BME280;74681;0.000;0.000;2024-03-23T11:27:00;98022.81;;;22.36;53.92
84443;BME280;74681;0.000;0.000;2024-03-23T11:29:28;98018.16;;;22.37;53.73
84443;BME280;74681;0.000;0.000;2024-03-23T11:31:54;98013.50;;;22.37;53.83
84443;BME280;74681;0.000;0.000;2024-03-23T11:34:20;98014.31;;;22.38;53.60
84443;BME280;74681;0.000;0.000;2024-03-23T11:36:46;98002.56;;;22.37;53.80
84443;BME280;74681;0.000;0.000;2024-03-23T11:39:18;98002.56;;;22.37;53.75
84443;BME280;74681;0.000;0.000;2024-03-23T11:41:50;98008.03;;;22.37;53.60
84443;BME280;74681;0.000;0.000;2024-03-23T11:44:20;98005.28;;;22.37;53.59
84443;BME280;74681;0.000;0.000;2024-03-23T11:46:47;97993.53;;;22.37;53.60
84443;BME280;74681;0.000;0.000;2024-03-23T11:49:19;97989.69;;;22.38;53.70
84443;BME280;74681;0.000;0.000;2024-03-23T11:51:47;97984.22;;;22.38;53.66
84443;BME280;74681;0.000;0.000;2024-03-23T11:54:13;97984.72;;;22.40;53.82
84443;BME280;74681;0.000;0.000;2024-03-23T11:56:38;97967.00;;;22.37;53.55
84443;BME280;74681;0.000;0.000;2024-03-23T11:59:03;97958.50;;;22.39;53.71
84443;BME280;74681;0.000;0.000;2024-03-23T12:01:29;97960.72;;;22.37;53.68
84443;BME280;74681;0.000;0.000;2024-03-23T12:03:54;97961.22;;;22.39;53.75
84443;BME280;74681;0.000;0.000;2024-03-23T12:06:20;97954.94;;;22.38;53.64
84443;BME280;74681;0.000;0.000;2024-03-23T12:08:45;97944.00;;;22.38;53.70
84443;BME280;74681;0.000;0.000;2024-03-23T12:11:11;97943.19;;;22.38;53.68
84443;BME280;74681;0.000;0.000;2024-03-23T12:13:38;97933.88;;;22.39;53.77
84443;BME280;74681;0.000;0.000;2024-03-23T12:16:10;97933.38;;;22.37;53.72
84443;BME280;74681;0.000;0.000;2024-03-23T12:18:36;97929.53;;;22.38;53.78
84443;BME280;74681;0.000;0.000;2024-03-23T12:21:02;97929.53;;;22.38;53.59
84443;BME280;74681;0.000;0.000;2024-03-23T12:23:28;97927.59;;;22.38;53.48
84443;BME280;74681;0.000;0.000;2024-03-23T12:25:53;97919.06;;;22.40;53.58
84443;BME280;74681;0.000;0.000;2024-03-23T12:28:18;97909.28;;;22.39;53.68
84443;BME280;74681;0.000;0.000;2024-03-23T12:30:44;97903.28;;;22.37;53.55
84443;BME280;74681;0.000;0.000;2024-03-23T12:33:09;97905.22;;;22.36;53.53
84443;BME280;74681;0.000;0.000;2024-03-23T12:35:34;97889.94;;;22.35;53.56
84443;BME280;74681;0.000;0.000;2024-03-23T12:38:00;97892.69;;;22.35;53.57
84443;BME280;74681;0.000;0.000;2024-03-23T12:40:25;97900.88;;;22.35;53.55
84443;BME280;74681;0.000;0.000;2024-03-23T12:42:52;97889.13;;;22.35;53.38
84443;BME280;74681;0.000;0.000;2024-03-23T12:45:17;97886.41;;;22.35;53.39
84443;BME280;74681;0.000;0.000;2024-03-23T12:47:42;97889.13;;;22.35;53.45
84443;BME280;74681;0.000;0.000;2024-03-23T12:50:08;97886.41;;;22.35;53.54
84443;BME280;74681;0.000;0.000;2024-03-23T12:52:34;97878.19;;;22.35;53.54
84443;BME280;74681;0.000;0.000;2024-03-23T12:55:00;97878.19;;;22.35;53.47
84443;BME280;74681;0.000;0.000;2024-03-23T12:57:25;97874.66;;;22.34;53.54
84443;BME280;74681;0.000;0.000;2024-03-23T12:59:51;97877.38;;;22.34;53.29
84443;BME280;74681;0.000;0.000;2024-03-23T13:02:18;97875.81;;;22.33;53.59
84443;BME280;74681;0.000;0.000;2024-03-23T13:04:44;97879.31;;;22.34;53.56
84443;BME280;74681;0.000;0.000;2024-03-23T13:07:10;97864.84;;;22.33;53.61
84443;BME280;74681;0.000;0.000;2024-03-23T13:09:35;97856.66;;;22.33;53.56
84443;BME280;74681;0.000;0.000;2024-03-23T13:12:01;97854.22;;;22.32;53.29
84443;BME280;74681;0.000;0.000;2024-03-23T13:14:26;97856.66;;;22.33;53.57
84443;BME280;74681;0.000;0.000;2024-03-23T13:16:52;97848.75;;;22.32;53.49
84443;BME280;74681;0.000;0.000;2024-03-23T13:19:17;97848.75;;;22.32;53.57
84443;BME280;74681;0.000;0.000;2024-03-23T13:21:42;97846.03;;;22.32;53.35
84443;BME280;74681;0.000;0.000;2024-03-23T13:24:08;97841.38;;;22.32;53.59
84443;BME280;74681;0.000;0.000;2024-03-23T13:26:33;97846.03;;;22.32;53.60
84443;BME280;74681;0.000;0.000;2024-03-23T13:28:59;97846.03;;;22.32;53.52
84443;BME280;74681;0.000;0.000;2024-03-23T13:31:25;97841.38;;;22.32;53.35
84443;BME280;74681;0.000;0.000;2024-03-23T13:33:50;97834.28;;;22.31;53.55
84443;BME280;74681;0.000;0.000;2024-03-23T13:36:15;97841.66;;;22.31;53.46
84443;BME280;74681;0.000;0.000;2024-03-23T13:38:40;97833.47;;;22.31;53.23
84443;BME280;74681;0.000;0.000;2024-03-23T13:41:06;97825.25;;;22.31;53.33
84443;BME280;74681;0.000;0.000;2024-03-23T13:43:32;97819.00;;;22.30;53.45
84443;BME280;74681;0.000;0.000;2024-03-23T13:45:58;97831.53;;;22.31;53.27
84443;BME280;74681;0.000;0.000;2024-03-23T13:48:25;97827.22;;;22.30;53.44
84443;BME280;74681;0.000;0.000;2024-03-23T13:51:00;97826.41;;;22.30;53.31
84443;BME280;74681;0.000;0.000;2024-03-23T13:53:26;97824.47;;;22.30;53.36
84443;BME280;74681;0.000;0.000;2024-03-23T13:55:51;97813.53;;;22.30;53.42
84443;BME280;74681;0.000;0.000;2024-03-23T13:58:16;97813.84;;;22.29;53.16
84443;BME280;74681;0.000;0.000;2024-03-23T14:00:42;97807.56;;;22.28;53.44
84443;BME280;74681;0.000;0.000;2024-03-23T14:03:10;97800.97;;;22.29;53.38
84443;BME280;74681;0.000;0.000;2024-03-23T14:05:36;97800.97;;;22.29;53.41